Date,TemperatureHighF,TemperatureAvgF,TemperatureLowF,DewpointHighF,DewpointAvgF,DewpointLowF,HumidityHigh,HumidityAvg,HumidityLow,PressureMaxIn,PressureMinIn,WindSpeedMaxMPH,WindSpeedAvgMPH,GustSpeedMaxMPH,PrecipitationSumIn
2013-3-1,46.0,41.9,36.8,31.2,27.6,23.0,70,57,47,29.87,29.71,10,3,21,0.00
2013-3-2,39.2,35.1,31.2,23.8,21.4,18.5,69,57,48,29.88,29.80,10,2,19,0.00
2013-3-3,38.6,34.1,29.5,20.1,18.8,17.1,66,54,44,29.90,29.79,11,4,21,0.00
2013-3-4,43.5,34.8,28.4,19.0,16.1,13.6,61,47,34,30.03,29.90,14,4,26,0.00
2013-3-5,48.8,36.3,23.2,30.2,21.2,14.0,82,56,26,30.09,29.85,7,1,12,0.00
2013-3-6,41.6,37.6,34.3,36.5,33.8,26.8,95,87,61,29.97,29.62,14,6,29,0.80
2013-3-7,50.2,43.0,35.9,28.9,25.3,21.6,69,50,36,30.14,29.97,12,4,24,0.00
2013-3-8,48.6,42.4,34.7,26.8,24.3,20.2,67,49,40,30.26,30.11,14,5,30,0.00
2013-3-9,63.7,46.7,34.4,25.9,22.0,16.9,66,41,17,30.34,30.24,10,1,17,0.00
2013-3-10,59.0,44.8,28.2,38.8,24.1,5.7,87,52,12,30.35,30.24,11,2,18,0.00
2013-3-11,57.3,49.5,42.8,48.0,43.3,38.7,92,80,69,30.27,29.96,12,4,22,0.00
2013-3-12,60.5,52.6,42.8,55.8,44.9,29.4,97,77,51,29.99,29.71,16,6,31,0.56
2013-3-13,50.7,41.0,30.0,34.4,24.9,16.0,91,56,26,30.05,29.89,11,3,27,0.00
2013-3-14,45.5,37.8,31.9,19.2,15.2,10.6,55,40,26,30.11,30.00,15,5,30,0.00
2013-3-15,56.2,42.4,27.2,31.1,21.0,14.4,72,45,26,30.09,29.78,14,3,26,0.00
2013-3-16,54.5,44.2,37.6,38.7,33.2,29.5,79,66,50,29.94,29.66,9,1,16,0.00
2013-3-17,41.3,37.9,33.5,32.0,28.4,21.3,88,69,50,30.29,29.93,6,1,16,0.00
2013-3-18,39.6,37.5,35.9,37.3,27.7,17.2,97,70,45,30.34,29.88,6,1,16,0.25
2013-3-19,59.2,45.5,37.8,42.5,31.8,7.4,100,68,17,29.92,29.71,13,2,27,0.01
2013-3-20,51.6,43.5,31.9,28.9,16.1,10.4,57,35,19,30.00,29.78,13,3,28,0.00
2013-3-21,44.5,35.6,29.3,25.4,13.3,4.9,68,41,27,29.90,29.74,12,4,22,0.00
2013-3-22,46.7,36.3,28.5,18.7,14.8,8.3,54,42,28,30.01,29.88,15,4,26,0.00
2013-3-23,53.1,39.6,26.6,23.2,20.4,17.5,73,49,27,30.03,29.91,12,2,24,0.00
2013-3-24,42.1,36.6,27.9,32.5,23.5,19.6,87,61,42,30.01,29.68,9,1,16,0.00
2013-3-25,35.9,34.4,32.5,34.9,32.5,30.6,96,93,83,29.70,29.52,4,0,11,0.56
2013-3-26,51.6,41.4,31.2,36.5,29.9,21.2,97,68,32,29.97,29.70,9,2,20,0.13
2013-3-27,49.9,44.2,38.8,32.0,27.1,22.6,66,51,35,30.10,29.97,14,4,29,0.00
2013-3-28,50.2,43.6,35.8,31.9,27.7,22.7,71,54,35,30.21,30.08,12,3,19,0.00
2013-3-29,56.5,47.4,40.1,30.8,26.7,22.8,62,46,28,30.25,30.14,11,2,17,0.00
2013-3-30,57.8,46.8,35.2,34.0,29.1,23.4,80,53,29,30.23,30.11,8,1,13,0.00
2013-3-31,54.5,47.6,38.2,50.3,41.5,29.8,96,80,59,30.14,29.74,12,2,22,0.04